createdAt,value
2016-09-29T00:00:19.279Z,57.07
2016-09-29T00:01:19.264Z,57.49
2016-09-29T00:02:19.249Z,57.65
2016-09-29T00:03:19.228Z,57.39
2016-09-29T00:04:19.215Z,57.49
2016-09-29T00:05:19.196Z,57.56
2016-09-29T00:06:19.182Z,57.46
2016-09-29T00:07:19.170Z,57.49
2016-09-29T00:08:19.160Z,57.46
2016-09-29T00:09:19.136Z,57.17
2016-09-29T00:10:19.116Z,57.65
2016-09-29T00:11:19.103Z,57.46
2016-09-29T00:12:19.097Z,56.91
2016-09-29T00:13:19.067Z,56.88
2016-09-29T00:14:19.053Z,57.65
2016-09-29T00:15:19.036Z,57.27
2016-09-29T00:16:19.026Z,57.68
2016-09-29T00:17:19.008Z,57.65
2016-09-29T00:18:18.990Z,57.78
2016-09-29T00:19:18.969Z,57.49
2016-09-29T00:20:18.957Z,57.49
2016-09-29T00:21:18.944Z,57.56
2016-09-29T00:22:18.922Z,57.78
2016-09-29T00:23:18.906Z,57.56
2016-09-29T00:24:18.893Z,57.78
2016-09-29T00:25:18.874Z,57.65
2016-09-29T00:26:18.855Z,57.78
2016-09-29T00:27:18.845Z,57.56
2016-09-29T00:28:18.522Z,57.85
2016-09-29T00:29:18.806Z,57.59
2016-09-29T00:30:18.803Z,58.23
2016-09-29T00:31:18.779Z,58.42
2016-09-29T00:32:18.760Z,58.26
2016-09-29T00:33:18.742Z,58.17
2016-09-29T00:34:18.728Z,57.56
2016-09-29T00:35:18.714Z,58.04
2016-09-29T00:36:18.696Z,58.07
2016-09-29T00:37:18.677Z,57.97
2016-09-29T00:38:18.662Z,57.97
2016-09-29T00:39:18.641Z,58.26
2016-09-29T00:40:18.635Z,58.36
2016-09-29T00:41:18.614Z,57.94
2016-09-29T00:42:18.598Z,58.45
2016-09-29T00:43:18.586Z,57.87
2016-09-29T00:44:18.263Z,58.07
2016-09-29T00:45:18.548Z,57.97
2016-09-29T00:46:18.229Z,58.42
2016-09-29T00:47:18.531Z,58.36
2016-09-29T00:48:18.503Z,57.97
2016-09-29T00:49:18.487Z,58.36
2016-09-29T00:50:18.161Z,57.87
2016-09-29T00:51:18.454Z,58.45
2016-09-29T00:52:18.435Z,58.26
2016-09-29T00:53:18.419Z,58.65
2016-09-29T00:54:18.400Z,58.07
2016-09-29T00:55:18.081Z,58.17
2016-09-29T00:56:18.369Z,57.78
2016-09-29T00:57:18.360Z,57.97
2016-09-29T00:58:18.346Z,58.36
2016-09-29T00:59:18.023Z,58.26
2016-09-29T01:00:18.005Z,58.26
2016-09-29T01:01:18.288Z,58.26
2016-09-29T01:02:18.274Z,57.97
2016-09-29T01:03:18.254Z,58.36
2016-09-29T01:04:18.249Z,58.36
2016-09-29T01:05:18.221Z,58.26
2016-09-29T01:06:18.216Z,57.85
2016-09-29T01:07:18.189Z,57.78
2016-09-29T01:08:18.178Z,58.07
2016-09-29T01:09:18.163Z,58.17
2016-09-29T01:10:18.148Z,58.07
2016-09-29T01:11:18.130Z,58.26
2016-09-29T01:12:17.811Z,58.26
2016-09-29T01:13:18.100Z,58.07
2016-09-29T01:14:18.086Z,58.36
2016-09-29T01:15:18.067Z,58.07
2016-09-29T01:16:18.045Z,58.07
2016-09-29T01:17:18.032Z,57.97
2016-09-29T01:18:18.015Z,58.26
2016-09-29T01:19:18.001Z,58.17
2016-09-29T01:20:17.980Z,58.07
2016-09-29T01:21:17.969Z,58.17
2016-09-29T01:22:17.949Z,58.17
2016-09-29T01:23:17.927Z,58.07
2016-09-29T01:24:17.915Z,58.07
2016-09-29T01:25:17.901Z,58.07
2016-09-29T01:26:17.892Z,58.07
2016-09-29T01:27:17.869Z,58.07
2016-09-29T01:28:17.851Z,57.97
2016-09-29T01:29:17.831Z,58.07
2016-09-29T01:30:17.825Z,57.97
2016-09-29T01:31:17.814Z,58.07
2016-09-29T01:32:17.786Z,58.36
2016-09-29T01:33:17.774Z,57.87
2016-09-29T01:34:17.750Z,58.36
2016-09-29T01:35:17.736Z,57.97
2016-09-29T01:36:17.723Z,58.07
2016-09-29T01:37:17.706Z,58.07
2016-09-29T01:38:17.688Z,58.36
2016-09-29T01:39:17.370Z,58.26
2016-09-29T01:40:17.654Z,58.36
2016-09-29T01:41:17.640Z,57.78
2016-09-29T01:42:17.628Z,57.87
2016-09-29T01:43:17.607Z,58.36
2016-09-29T01:44:17.592Z,58.26
2016-09-29T01:45:17.572Z,57.78
2016-09-29T01:46:17.561Z,57.87
2016-09-29T01:47:17.542Z,58.07
2016-09-29T01:48:17.525Z,57.97
2016-09-29T01:49:17.509Z,58.45
2016-09-29T01:50:17.500Z,58.26
2016-09-29T01:51:17.475Z,57.97
2016-09-29T01:52:17.467Z,58.36
2016-09-29T01:53:17.449Z,57.87
2016-09-29T01:54:17.428Z,58.45
2016-09-29T01:55:17.413Z,58.17
2016-09-29T01:56:17.399Z,58.17
2016-09-29T01:57:17.382Z,58.26
2016-09-29T01:58:17.359Z,57.97
2016-09-29T01:59:17.347Z,58.07
2016-09-29T02:00:17.331Z,57.87
2016-09-29T02:01:17.313Z,58.07
2016-09-29T02:02:17.300Z,57.97
2016-09-29T02:03:17.282Z,57.97
2016-09-29T02:04:17.266Z,57.97
2016-09-29T02:05:17.248Z,57.97
2016-09-29T02:06:17.236Z,57.97
2016-09-29T02:07:17.217Z,58.36
2016-09-29T02:08:17.204Z,58.07
2016-09-29T02:09:17.182Z,57.87
2016-09-29T02:10:17.167Z,57.97
2016-09-29T02:11:17.154Z,58.36
2016-09-29T02:12:17.136Z,57.78
2016-09-29T02:13:17.124Z,57.97
2016-09-29T02:14:17.103Z,58.07
2016-09-29T02:15:17.085Z,57.87
2016-09-29T02:16:16.771Z,57.97
2016-09-29T02:17:17.052Z,58.07
2016-09-29T02:18:17.039Z,58.26
2016-09-29T02:19:17.017Z,58.17
2016-09-29T02:20:17.012Z,58.26
2016-09-29T02:21:16.986Z,58.07
2016-09-29T02:22:16.970Z,58.07
2016-09-29T02:23:16.956Z,58.36
2016-09-29T02:24:16.640Z,58.26
2016-09-29T02:25:16.926Z,58.26
2016-09-29T02:26:16.611Z,58.07
2016-09-29T02:27:16.888Z,58.36
2016-09-29T02:28:16.881Z,58.26
2016-09-29T02:29:16.866Z,58.36
2016-09-29T02:30:16.840Z,58.17
2016-09-29T02:31:16.829Z,58.07
2016-09-29T02:32:16.814Z,58.55
2016-09-29T02:33:16.794Z,58.55
2016-09-29T02:34:16.777Z,58.65
2016-09-29T02:35:16.766Z,58.26
2016-09-29T02:36:16.747Z,58.17
2016-09-29T02:37:16.731Z,58.65
2016-09-29T02:38:16.717Z,58.65
2016-09-29T02:39:16.696Z,58.26
2016-09-29T02:40:16.380Z,59.03
2016-09-29T02:41:16.667Z,58.84
2016-09-29T02:42:16.649Z,58.75
2016-09-29T02:43:16.631Z,58.84
2016-09-29T02:44:16.615Z,58.94
2016-09-29T02:45:16.605Z,58.84
2016-09-29T02:46:16.584Z,58.84
2016-09-29T02:47:16.566Z,58.84
2016-09-29T02:48:16.549Z,58.84
2016-09-29T02:49:16.543Z,58.94
2016-09-29T02:50:16.532Z,58.36
2016-09-29T02:51:16.498Z,58.75
2016-09-29T02:52:16.498Z,58.55
2016-09-29T02:53:16.467Z,58.07
2016-09-29T02:54:16.152Z,58.07
2016-09-29T02:55:16.440Z,58.45
2016-09-29T02:56:16.434Z,58.55
2016-09-29T02:57:16.105Z,58.17
2016-09-29T02:58:16.390Z,57.97
2016-09-29T02:59:16.368Z,57.97
2016-09-29T03:00:16.357Z,57.97
2016-09-29T03:01:16.344Z,58.07
2016-09-29T03:02:16.324Z,57.97
2016-09-29T03:03:16.316Z,57.87
2016-09-29T03:04:16.296Z,57.97
2016-09-29T03:05:16.270Z,58.26
2016-09-29T03:06:16.257Z,58.36
2016-09-29T03:07:16.252Z,58.26
2016-09-29T03:08:16.227Z,58.26
2016-09-29T03:09:16.208Z,58.36
2016-09-29T03:10:16.190Z,58.36
2016-09-29T03:11:16.187Z,58.23
2016-09-29T03:12:16.167Z,58.07
2016-09-29T03:13:16.149Z,57.87
2016-09-29T03:14:16.125Z,58.36
2016-09-29T03:15:16.111Z,58.07
2016-09-29T03:16:16.094Z,57.97
2016-09-29T03:17:16.080Z,57.97
2016-09-29T03:18:16.065Z,57.97
2016-09-29T03:19:16.063Z,57.97
2016-09-29T03:20:16.030Z,57.97
2016-09-29T03:21:16.015Z,58.33
2016-09-29T03:22:16.001Z,58.42
2016-09-29T03:23:15.981Z,57.94
2016-09-29T03:24:15.662Z,58.42
2016-09-29T03:25:15.946Z,57.87
2016-09-29T03:26:15.933Z,57.94
2016-09-29T03:27:15.919Z,57.94
2016-09-29T03:28:15.902Z,57.97
2016-09-29T03:29:15.885Z,57.97
2016-09-29T03:30:15.864Z,58.26
2016-09-29T03:31:15.854Z,58.04
2016-09-29T03:32:15.530Z,57.97
2016-09-29T03:33:15.820Z,58.23
2016-09-29T03:34:15.804Z,57.94
2016-09-29T03:35:15.791Z,57.94
2016-09-29T03:36:15.773Z,58.55
2016-09-29T03:37:15.756Z,58.23
2016-09-29T03:38:15.747Z,58.26
2016-09-29T03:39:15.417Z,58.04
2016-09-29T03:40:15.707Z,58.26
2016-09-29T03:41:15.692Z,58.36
2016-09-29T03:42:15.670Z,58.23
2016-09-29T03:43:15.654Z,58.91
2016-09-29T03:44:15.641Z,58.52
2016-09-29T03:45:15.624Z,58.04
2016-09-29T03:46:15.609Z,58.36
2016-09-29T03:47:15.594Z,57.87
2016-09-29T03:48:15.577Z,58.07
2016-09-29T03:49:15.559Z,58.04
2016-09-29T03:50:15.540Z,57.94
2016-09-29T03:51:15.535Z,57.94
2016-09-29T03:52:15.512Z,58.33
2016-09-29T03:53:15.192Z,58.14
2016-09-29T03:54:15.484Z,58.81
2016-09-29T03:55:15.165Z,58.52
2016-09-29T03:56:15.448Z,58.36
2016-09-29T03:57:15.432Z,58.81
2016-09-29T03:58:15.413Z,58.72
2016-09-29T03:59:15.413Z,58.75
2016-09-29T04:00:15.381Z,58.33
2016-09-29T04:01:15.363Z,58.75
2016-09-29T04:02:15.350Z,58.75
2016-09-29T04:03:15.031Z,58.91
2016-09-29T04:04:15.309Z,58.42
2016-09-29T04:05:15.302Z,58.65
2016-09-29T04:06:15.283Z,58.65
2016-09-29T04:07:15.266Z,58.91
2016-09-29T04:08:15.255Z,58.65
2016-09-29T04:09:15.236Z,58.45
2016-09-29T04:10:15.218Z,58.04
2016-09-29T04:11:15.205Z,58.33
2016-09-29T04:12:15.185Z,58.33
2016-09-29T04:13:15.168Z,58.04
2016-09-29T04:14:15.159Z,57.97
2016-09-29T04:15:15.140Z,57.85
2016-09-29T04:16:15.119Z,57.97
2016-09-29T04:17:15.114Z,58.23
2016-09-29T04:18:15.092Z,58.26
2016-09-29T04:19:15.073Z,57.75
2016-09-29T04:20:15.051Z,58.26
2016-09-29T04:21:15.039Z,58.23
2016-09-29T04:22:15.027Z,58.26
2016-09-29T04:23:15.015Z,58.42
2016-09-29T04:24:14.689Z,58.33
2016-09-29T04:25:14.981Z,57.94
2016-09-29T04:26:14.957Z,58.07
2016-09-29T04:27:14.941Z,57.97
2016-09-29T04:28:14.928Z,57.94
2016-09-29T04:29:14.907Z,57.94
2016-09-29T04:30:14.898Z,57.85
2016-09-29T04:31:14.877Z,58.17
2016-09-29T04:32:14.863Z,57.94
2016-09-29T04:33:14.845Z,57.87
2016-09-29T04:34:14.833Z,58.14
2016-09-29T04:35:14.813Z,58.07
2016-09-29T04:36:14.795Z,57.94
2016-09-29T04:37:14.479Z,57.85
2016-09-29T04:38:14.770Z,57.94
2016-09-29T04:39:14.755Z,57.94
2016-09-29T04:40:14.733Z,58.23
2016-09-29T04:41:14.713Z,58.23
2016-09-29T04:42:14.703Z,58.04
2016-09-29T04:43:14.685Z,57.85
2016-09-29T04:44:14.365Z,58.23
2016-09-29T04:45:14.649Z,58.04
2016-09-29T04:46:14.638Z,58.23
2016-09-29T04:47:14.616Z,58.04
2016-09-29T04:48:14.608Z,58.17
2016-09-29T04:49:14.590Z,58.04
2016-09-29T04:50:14.567Z,58.14
2016-09-29T04:51:14.553Z,57.97
2016-09-29T04:52:14.536Z,58.23
2016-09-29T04:53:14.519Z,58.14
2016-09-29T04:54:14.206Z,57.94
2016-09-29T04:55:14.490Z,58.26
2016-09-29T04:56:14.469Z,58.04
2016-09-29T04:57:14.459Z,57.97
2016-09-29T04:58:14.437Z,58.07
2016-09-29T04:59:14.419Z,58.04
2016-09-29T05:00:14.406Z,57.97
2016-09-29T05:01:14.385Z,57.94
2016-09-29T05:02:14.369Z,57.97
2016-09-29T05:03:14.355Z,57.97
2016-09-29T05:04:14.337Z,57.97
2016-09-29T05:05:14.322Z,57.94
2016-09-29T05:06:14.309Z,58.04
2016-09-29T05:07:14.292Z,58.04
2016-09-29T05:08:14.272Z,58.14
2016-09-29T05:09:14.262Z,58.52
2016-09-29T05:10:14.242Z,58.84
2016-09-29T05:11:14.233Z,58.72
2016-09-29T05:12:14.208Z,58.62
2016-09-29T05:13:14.197Z,58.33
2016-09-29T05:14:14.175Z,58.33
2016-09-29T05:15:14.162Z,59.1
2016-09-29T05:16:14.146Z,58.81
2016-09-29T05:17:14.128Z,58.84
2016-09-29T05:18:14.117Z,58.81
2016-09-29T05:19:13.791Z,58.52
2016-09-29T05:20:14.079Z,58.72
2016-09-29T05:21:14.062Z,58.91
2016-09-29T05:22:14.047Z,58.91
2016-09-29T05:23:14.028Z,58.72
2016-09-29T05:24:14.011Z,58.52
2016-09-29T05:25:13.995Z,58.91
2016-09-29T05:26:13.984Z,59
2016-09-29T05:27:13.971Z,58.75
2016-09-29T05:28:13.951Z,58.72
2016-09-29T05:29:13.934Z,58.72
2016-09-29T05:30:13.922Z,58.72
2016-09-29T05:31:13.902Z,58.72
2016-09-29T05:32:13.888Z,58.72
2016-09-29T05:33:13.876Z,58.33
2016-09-29T05:34:13.850Z,58.72
2016-09-29T05:35:13.831Z,58.42
2016-09-29T05:36:13.815Z,58.42
2016-09-29T05:37:13.804Z,58.72
2016-09-29T05:38:13.481Z,58.52
2016-09-29T05:39:13.765Z,58.33
2016-09-29T05:40:13.764Z,58.52
2016-09-29T05:41:13.439Z,58.62
2016-09-29T05:42:13.725Z,58.52
2016-09-29T05:43:13.706Z,58.62
2016-09-29T05:44:13.701Z,58.62
2016-09-29T05:45:13.671Z,58.62
2016-09-29T05:46:13.660Z,58.33
2016-09-29T05:47:13.645Z,58.33
2016-09-29T05:48:13.623Z,58.52
2016-09-29T05:49:13.604Z,58.52
2016-09-29T05:50:13.593Z,58.62
2016-09-29T05:51:13.574Z,58.52
2016-09-29T05:52:13.555Z,58.52
2016-09-29T05:53:13.536Z,58.62
2016-09-29T05:54:13.520Z,58.72
2016-09-29T05:55:13.507Z,58.52
2016-09-29T05:56:13.495Z,58.72
2016-09-29T05:57:13.487Z,58.81
2016-09-29T05:58:13.161Z,58.91
2016-09-29T05:59:13.142Z,58.72
2016-09-29T06:00:13.427Z,58.72
2016-09-29T06:01:13.420Z,59
2016-09-29T06:02:13.398Z,58.72
2016-09-29T06:03:13.375Z,58.62
2016-09-29T06:04:13.381Z,58.81
2016-09-29T06:05:13.349Z,58.91
2016-09-29T06:06:13.030Z,58.72
2016-09-29T06:07:13.319Z,58.81
2016-09-29T06:08:13.303Z,58.72
2016-09-29T06:09:12.974Z,58.84
2016-09-29T06:10:13.271Z,58.91
2016-09-29T06:11:13.247Z,59.8
2016-09-29T06:12:13.232Z,59.58
2016-09-29T06:13:13.216Z,58.91
2016-09-29T06:14:13.201Z,59.61
2016-09-29T06:15:12.878Z,59.68
2016-09-29T06:16:13.174Z,60.16
2016-09-29T06:17:13.152Z,60.03
2016-09-29T06:18:12.838Z,60.32
2016-09-29T06:19:13.123Z,60.8
2016-09-29T06:20:13.108Z,61.55
2016-09-29T06:21:13.087Z,61.25
2016-09-29T06:22:13.078Z,61.68
2016-09-29T06:23:13.054Z,61.25
2016-09-29T06:24:13.037Z,61.16
2016-09-29T06:25:13.019Z,61.25
2016-09-29T06:26:12.701Z,61.35
2016-09-29T06:27:12.683Z,61.35
2016-09-29T06:28:12.670Z,61.35
2016-09-29T06:29:12.954Z,61.25
2016-09-29T06:30:12.935Z,61.55
2016-09-29T06:31:12.929Z,61.65
2016-09-29T06:32:12.907Z,61.93
2016-09-29T06:33:12.900Z,61.65
2016-09-29T06:34:12.869Z,62.12
2016-09-29T06:35:12.854Z,62.03
2016-09-29T06:36:12.840Z,62.03
2016-09-29T06:37:12.526Z,61.55
2016-09-29T06:38:12.805Z,61.74
2016-09-29T06:39:12.788Z,62.22
2016-09-29T06:40:12.774Z,62.03
2016-09-29T06:41:12.755Z,62.41
2016-09-29T06:42:12.741Z,62.22
2016-09-29T06:43:12.724Z,61.74
2016-09-29T06:44:12.709Z,61.65
2016-09-29T06:45:12.694Z,61.74
2016-09-29T06:46:12.685Z,61.93
2016-09-29T06:47:12.661Z,62.22
2016-09-29T06:48:12.644Z,62.12
2016-09-29T06:49:12.623Z,62.41
2016-09-29T06:50:12.608Z,62.32
2016-09-29T06:51:12.593Z,61.65
2016-09-29T06:52:12.572Z,62.41
2016-09-29T06:53:12.257Z,62.32
2016-09-29T06:54:12.543Z,61.83
2016-09-29T06:55:12.527Z,62.09
2016-09-29T06:56:12.520Z,62.7
2016-09-29T06:57:12.487Z,62.7
2016-09-29T06:58:12.175Z,62.51
2016-09-29T06:59:12.461Z,62.6
2016-09-29T07:00:12.455Z,62.51
2016-09-29T07:01:12.426Z,62.6
2016-09-29T07:02:12.413Z,62.7
2016-09-29T07:03:12.402Z,62.12
2016-09-29T07:04:12.372Z,61.65
2016-09-29T07:05:12.371Z,61.25
2016-09-29T07:06:12.044Z,61.45
2016-09-29T07:07:12.023Z,60.42
2016-09-29T07:08:12.012Z,61
2016-09-29T07:09:12.296Z,61
2016-09-29T07:10:11.977Z,60.42
2016-09-29T07:11:12.258Z,60.8
2016-09-29T07:12:12.243Z,60.52
2016-09-29T07:13:11.926Z,60.32
2016-09-29T07:14:12.214Z,60.03
2016-09-29T07:15:12.193Z,60.06
2016-09-29T07:16:12.180Z,60.13
2016-09-29T07:17:12.161Z,60.45
2016-09-29T07:18:12.150Z,60.26
2016-09-29T07:19:12.126Z,60.16
2016-09-29T07:20:12.107Z,60.06
2016-09-29T07:21:12.094Z,60.16
2016-09-29T07:22:12.077Z,60.55
2016-09-29T07:23:12.063Z,59.97
2016-09-29T07:24:12.049Z,60.45
2016-09-29T07:25:12.027Z,60.16
2016-09-29T07:26:12.012Z,60.06
2016-09-29T07:27:11.999Z,60.16
2016-09-29T07:28:11.986Z,60.06
2016-09-29T07:29:11.661Z,60.16
2016-09-29T07:30:11.949Z,60.06
2016-09-29T07:31:11.625Z,60.06
2016-09-29T07:32:11.913Z,60.26
2016-09-29T07:33:11.598Z,60.35
2016-09-29T07:34:11.878Z,60.16
2016-09-29T07:35:11.872Z,60.55
2016-09-29T07:36:11.844Z,60.16
2016-09-29T07:37:11.828Z,60.06
2016-09-29T07:38:11.824Z,60.45
2016-09-29T07:39:11.802Z,60.26
2016-09-29T07:40:11.781Z,60.26
2016-09-29T07:41:11.777Z,59.97
2016-09-29T07:42:11.752Z,59.87
2016-09-29T07:43:11.746Z,59.87
2016-09-29T07:44:11.715Z,60.35
2016-09-29T07:45:11.711Z,59.58
2016-09-29T07:46:11.693Z,59.48
2016-09-29T07:47:11.681Z,59.68
2016-09-29T07:48:11.646Z,59.68
2016-09-29T07:49:11.644Z,59.48
2016-09-29T07:50:11.619Z,59.97
2016-09-29T07:51:11.301Z,59.58
2016-09-29T07:52:11.589Z,59.58
2016-09-29T07:53:11.591Z,59.58
2016-09-29T07:54:11.556Z,59.48
2016-09-29T07:55:11.536Z,59.3
2016-09-29T07:56:11.522Z,59.58
2016-09-29T07:57:11.204Z,59.48
2016-09-29T07:58:11.489Z,59.39
2016-09-29T07:59:11.169Z,59.3
2016-09-29T08:00:11.461Z,59.58
2016-09-29T08:01:11.441Z,59.58
2016-09-29T08:02:11.422Z,59.3
2016-09-29T08:03:11.101Z,59.68
2016-09-29T08:04:11.395Z,59.48
2016-09-29T08:05:11.381Z,59.68
2016-09-29T08:06:11.057Z,59.68
2016-09-29T08:07:11.340Z,59.3
2016-09-29T08:08:11.328Z,59.58
2016-09-29T08:09:11.309Z,59.2
2016-09-29T08:10:11.292Z,59.68
2016-09-29T08:11:10.972Z,59.68
2016-09-29T08:12:10.967Z,59.42
2016-09-29T08:13:10.946Z,59.58
2016-09-29T08:14:11.228Z,59.52
2016-09-29T08:15:11.210Z,59.9
2016-09-29T08:16:11.205Z,59.71
2016-09-29T08:17:10.875Z,59.9
2016-09-29T08:18:11.165Z,59.61
2016-09-29T08:19:11.151Z,60.1
2016-09-29T08:20:11.130Z,60
2016-09-29T08:21:10.832Z,60.19
2016-09-29T08:22:11.096Z,59.8
2016-09-29T08:23:11.077Z,59.9
2016-09-29T08:24:11.063Z,60
2016-09-29T08:25:11.044Z,60.19
2016-09-29T08:26:10.733Z,60.38
2016-09-29T08:27:10.710Z,60
2016-09-29T08:28:10.996Z,60
2016-09-29T08:29:10.982Z,60.1
2016-09-29T08:30:10.968Z,60.1
2016-09-29T08:31:10.656Z,59.9
2016-09-29T08:32:10.929Z,60.1
2016-09-29T08:33:10.921Z,60.48
2016-09-29T08:34:10.900Z,59.8
2016-09-29T08:35:10.883Z,60.38
2016-09-29T08:36:10.868Z,59.8
2016-09-29T08:37:10.554Z,60.58
2016-09-29T08:38:10.841Z,60.19
2016-09-29T08:39:10.820Z,60
2016-09-29T08:40:10.502Z,60
2016-09-29T08:41:10.788Z,59.9
2016-09-29T08:42:10.778Z,60
2016-09-29T08:43:10.751Z,60
2016-09-29T08:44:10.735Z,59.9
2016-09-29T08:45:10.720Z,60
2016-09-29T08:46:10.708Z,60
2016-09-29T08:47:10.701Z,60.1
2016-09-29T08:48:10.672Z,60
2016-09-29T08:49:10.658Z,59.9
2016-09-29T08:50:10.639Z,60.19
2016-09-29T08:51:10.628Z,60.48
2016-09-29T08:52:10.311Z,60.1
2016-09-29T08:53:10.287Z,59.9
2016-09-29T08:54:10.573Z,59.9
2016-09-29T08:55:10.563Z,59.71
2016-09-29T08:56:10.538Z,60.28
2016-09-29T08:57:10.527Z,60
2016-09-29T08:58:10.516Z,60
2016-09-29T08:59:10.494Z,59.9
2016-09-29T09:00:10.474Z,59.52
2016-09-29T09:01:10.162Z,59.61
2016-09-29T09:02:10.452Z,59.61
2016-09-29T09:03:10.428Z,59.61
2016-09-29T09:04:10.112Z,59.8
2016-09-29T09:05:10.405Z,59.9
2016-09-29T09:06:10.080Z,60
2016-09-29T09:07:10.364Z,60
2016-09-29T09:08:10.348Z,60.38
2016-09-29T09:09:10.332Z,60.38
2016-09-29T09:10:10.017Z,60.38
2016-09-29T09:11:10.296Z,60
2016-09-29T09:12:10.279Z,60.58
2016-09-29T09:13:10.267Z,60.1
2016-09-29T09:14:09.949Z,60.48
2016-09-29T09:15:10.234Z,60.1
2016-09-29T09:16:09.912Z,60.38
2016-09-29T09:17:10.232Z,59.8
2016-09-29T09:18:10.193Z,60.48
2016-09-29T09:19:10.177Z,60.1
2016-09-29T09:20:10.153Z,59.9
2016-09-29T09:21:10.136Z,60
2016-09-29T09:22:10.115Z,60.19
2016-09-29T09:23:09.807Z,60.19
2016-09-29T09:24:10.087Z,59.8
2016-09-29T09:25:10.319Z,59.8
2016-09-29T09:26:10.054Z,59.9
2016-09-29T09:27:09.733Z,60.22
2016-09-29T09:28:10.020Z,60
2016-09-29T09:29:10.015Z,60.28
2016-09-29T09:30:09.687Z,60
2016-09-29T09:31:09.987Z,60
2016-09-29T09:32:09.960Z,60.38
2016-09-29T09:33:09.644Z,60.19
2016-09-29T09:34:09.925Z,60.38
2016-09-29T09:35:09.909Z,60.38
2016-09-29T09:36:09.594Z,60.1
2016-09-29T09:37:09.577Z,60.1
2016-09-29T09:38:09.868Z,60.48
2016-09-29T09:39:09.842Z,60.28
2016-09-29T09:40:09.527Z,60.28
2016-09-29T09:41:09.811Z,60.19
2016-09-29T09:42:09.799Z,60.19
2016-09-29T09:43:09.779Z,60.28
2016-09-29T09:44:09.781Z,60.38
2016-09-29T09:45:09.752Z,60.1
2016-09-29T09:46:09.747Z,60.19
2016-09-29T09:47:09.714Z,60.1
2016-09-29T09:48:09.696Z,60.19
2016-09-29T09:49:09.692Z,60.38
2016-09-29T09:50:09.663Z,60.1
2016-09-29T09:51:09.655Z,60.38
2016-09-29T09:52:09.631Z,60.28
2016-09-29T09:53:09.616Z,60.19
2016-09-29T09:54:09.600Z,60.1
2016-09-29T09:55:09.585Z,60.28
2016-09-29T09:56:09.571Z,60.13
2016-09-29T09:57:09.552Z,60.19
2016-09-29T09:58:09.535Z,60
2016-09-29T09:59:09.527Z,60.31
2016-09-29T10:00:09.500Z,60
2016-09-29T10:01:09.507Z,60.19
2016-09-29T10:02:09.168Z,60
2016-09-29T10:03:09.153Z,60.19
2016-09-29T10:04:09.138Z,60.1
2016-09-29T10:05:09.423Z,60.28
2016-09-29T10:06:09.107Z,60.19
2016-09-29T10:07:09.394Z,60.1
2016-09-29T10:08:09.378Z,60.1
2016-09-29T10:09:09.358Z,60.1
2016-09-29T10:10:09.341Z,60.22
2016-09-29T10:11:09.023Z,60.61
2016-09-29T10:12:09.312Z,60.41
2016-09-29T10:13:09.295Z,60.03
2016-09-29T10:14:09.282Z,60.13
2016-09-29T10:15:09.263Z,60.41
2016-09-29T10:16:08.945Z,60
2016-09-29T10:17:09.230Z,60.51
2016-09-29T10:18:09.213Z,60.58
2016-09-29T10:19:08.893Z,60.03
2016-09-29T10:20:09.180Z,60.31
2016-09-29T10:21:09.161Z,59.83
2016-09-29T10:22:09.148Z,60.13
2016-09-29T10:23:09.131Z,59.74
2016-09-29T10:24:09.111Z,59.74
2016-09-29T10:25:09.106Z,59.71
2016-09-29T10:26:09.085Z,59.55
2016-09-29T10:27:09.066Z,59.61
2016-09-29T10:28:09.053Z,59.32
2016-09-29T10:29:08.733Z,59.8
2016-09-29T10:30:08.718Z,59.61
2016-09-29T10:31:09.005Z,59.03
2016-09-29T10:32:08.993Z,59.42
2016-09-29T10:33:08.970Z,59.52
2016-09-29T10:34:08.659Z,59.03
2016-09-29T10:35:08.941Z,58.75
2016-09-29T10:36:08.924Z,59.42
2016-09-29T10:37:08.908Z,58.94
2016-09-29T10:38:08.895Z,59.13
2016-09-29T10:39:08.871Z,58.94
2016-09-29T10:40:08.863Z,58.94
2016-09-29T10:41:08.846Z,58.94
2016-09-29T10:42:08.832Z,58.75
2016-09-29T10:43:08.808Z,58.75
2016-09-29T10:44:08.794Z,58.75
2016-09-29T10:45:08.788Z,58.07
2016-09-29T10:46:08.760Z,58.17
2016-09-29T10:47:08.748Z,57.97
2016-09-29T10:48:08.436Z,58.36
2016-09-29T10:49:08.413Z,58.26
2016-09-29T10:50:08.395Z,58.07
2016-09-29T10:51:08.688Z,58.07
2016-09-29T10:52:08.668Z,57.97
2016-09-29T10:53:08.645Z,58.07
2016-09-29T10:54:08.636Z,58.36
2016-09-29T10:55:08.315Z,58.26
2016-09-29T10:56:08.301Z,57.78
2016-09-29T10:57:08.584Z,57.59
2016-09-29T10:58:08.565Z,57.78
2016-09-29T10:59:08.548Z,57.97
2016-09-29T11:00:08.534Z,57.97
2016-09-29T11:01:08.522Z,57.78
2016-09-29T11:02:08.502Z,58.07
2016-09-29T11:03:08.490Z,58.26
2016-09-29T11:04:08.469Z,58.07
2016-09-29T11:05:08.454Z,57.59
2016-09-29T11:06:08.433Z,57.49
2016-09-29T11:07:08.418Z,57.59
2016-09-29T11:08:08.406Z,57.29
2016-09-29T11:09:08.089Z,56.91
2016-09-29T11:10:08.370Z,57.01
2016-09-29T11:11:08.357Z,57.01
2016-09-29T11:12:08.346Z,57.01
2016-09-29T11:13:08.326Z,56.91
2016-09-29T11:14:08.308Z,56.91
2016-09-29T11:15:08.292Z,56.81
2016-09-29T11:16:08.276Z,56.81
2016-09-29T11:17:08.259Z,56.52
2016-09-29T11:18:08.247Z,56.52
2016-09-29T11:19:08.226Z,56.62
2016-09-29T11:20:07.909Z,56.91
2016-09-29T11:21:08.195Z,56.72
2016-09-29T11:22:08.174Z,57.1
2016-09-29T11:23:07.879Z,56.62
2016-09-29T11:24:08.145Z,57.1
2016-09-29T11:25:08.135Z,56.43
2016-09-29T11:26:08.111Z,56.33
2016-09-29T11:27:08.099Z,56.14
2016-09-29T11:28:08.082Z,56.33
2016-09-29T11:29:07.761Z,56.04
2016-09-29T11:30:07.745Z,55.85
2016-09-29T11:31:08.030Z,55.85
2016-09-29T11:32:08.014Z,55.94
2016-09-29T11:33:08.012Z,55.94
2016-09-29T11:34:07.985Z,55.76
2016-09-29T11:35:07.670Z,55.94
2016-09-29T11:36:07.956Z,55.76
2016-09-29T11:37:07.937Z,56.14
2016-09-29T11:38:07.617Z,55.76
2016-09-29T11:39:07.605Z,55.76
2016-09-29T11:40:07.588Z,56.04
2016-09-29T11:41:07.570Z,55.76
2016-09-29T11:42:07.853Z,55.76
2016-09-29T11:43:07.838Z,56.14
2016-09-29T11:44:07.834Z,55.85
2016-09-29T11:45:07.811Z,55.94
2016-09-29T11:46:07.788Z,55.94
2016-09-29T11:47:07.777Z,55.85
2016-09-29T11:48:07.758Z,56.14
2016-09-29T11:49:07.439Z,56.04
2016-09-29T11:50:07.732Z,55.76
2016-09-29T11:51:07.711Z,55.85
2016-09-29T11:52:07.686Z,56.04
2016-09-29T11:53:07.679Z,55.85
2016-09-29T11:54:07.659Z,55.76
2016-09-29T11:55:07.640Z,56.04
2016-09-29T11:56:07.626Z,55.66
2016-09-29T11:57:07.611Z,56.14
2016-09-29T11:58:07.594Z,56.24
2016-09-29T11:59:07.593Z,55.85
2016-09-29T12:00:07.559Z,55.76
2016-09-29T12:01:07.555Z,55.94
2016-09-29T12:02:07.530Z,55.66
2016-09-29T12:03:07.513Z,55.59
2016-09-29T12:04:07.500Z,56.14
2016-09-29T12:05:07.189Z,55.85
2016-09-29T12:06:07.666Z,56.16
2016-09-29T12:07:07.454Z,56.52
2016-09-29T12:08:07.133Z,56.07
2016-09-29T12:09:07.430Z,56.46
2016-09-29T12:10:07.400Z,56.43
2016-09-29T12:11:07.399Z,56.52
2016-09-29T12:12:07.371Z,56.65
2016-09-29T12:13:07.046Z,56.56
2016-09-29T12:14:07.342Z,56.56
2016-09-29T12:15:07.023Z,56.33
2016-09-29T12:16:07.300Z,56.33
2016-09-29T12:17:07.287Z,56.26
2016-09-29T12:18:07.272Z,56.36
2016-09-29T12:19:07.255Z,56.52
2016-09-29T12:20:07.239Z,56.46
2016-09-29T12:21:06.919Z,56.74
2016-09-29T12:22:07.215Z,56.74
2016-09-29T12:23:06.890Z,56.81
2016-09-29T12:24:07.175Z,56.72
2016-09-29T12:25:07.164Z,57.1
2016-09-29T12:26:07.140Z,57.1
2016-09-29T12:27:07.126Z,56.91
2016-09-29T12:28:07.109Z,56.91
2016-09-29T12:29:07.095Z,56.81
2016-09-29T12:30:07.081Z,57.01
2016-09-29T12:31:07.059Z,56.91
2016-09-29T12:32:07.048Z,57.01
2016-09-29T12:33:07.028Z,57.01
2016-09-29T12:34:06.713Z,57.01
2016-09-29T12:35:06.696Z,56.94
2016-09-29T12:36:06.977Z,56.72
2016-09-29T12:37:06.963Z,56.81
2016-09-29T12:38:06.946Z,56.72
2016-09-29T12:39:06.937Z,56.62
2016-09-29T12:40:06.911Z,56.72
2016-09-29T12:41:06.902Z,56.81
2016-09-29T12:42:06.884Z,56.33
2016-09-29T12:43:06.568Z,57.01
2016-09-29T12:44:06.551Z,57.01
2016-09-29T12:45:06.836Z,56.91
2016-09-29T12:46:06.817Z,56.84
2016-09-29T12:47:06.499Z,57.01
2016-09-29T12:48:06.784Z,57.14
2016-09-29T12:49:06.769Z,56.91
2016-09-29T12:50:06.754Z,56.91
2016-09-29T12:51:06.744Z,57.01
2016-09-29T12:52:06.725Z,57.39
2016-09-29T12:53:06.708Z,57.59
2016-09-29T12:54:06.689Z,57.2
2016-09-29T12:55:06.680Z,57.2
2016-09-29T12:56:06.661Z,57.2
2016-09-29T12:57:06.646Z,57.29